• Join FlightAware (Why Join?)
  • Login
  • US Flag 
01:40AM EST


 

Airport Tracker/Info


-or-


 

Live Flight TrackerFlight Track Log ✈ EJA929 ✈ 22-May-2013 ✈ KIAD - KDAL

Flight Track Log - Related Links

Times and Time Zones

All times are in EDT time to prevent confusion due to time zone crossing. See the EJA929 flight status page for this flight to view local times or setup timezone preferences in your user account.

Time Position Orientation Groundspeed Altitude Reporting Facility
EDT Latitude Longitude Course Direction KTS MPH feet Rate Location/Type
07:19PM 38.8833 -77.4500 213° Southwest 208 239 3,200  Level Potomac TRACON
07:21PM 38.7639 -77.5511 213° Southwest 229 264 10,200 2,580 Climbing Washington Center
07:22PM 38.6825 -77.5622 186° South 265 305 11,800 1,500 Climbing Washington Center
07:23PM 38.6042 -77.6319 215° Southwest 298 343 13,300 1,500 Climbing Washington Center
07:24PM 38.5236 -77.7067 216° Southwest 340 391 14,800 1,620 Climbing Washington Center
07:25PM 38.4431 -77.7867 218° Southwest 361 415 16,600 1,860 Climbing Washington Center
07:26PM 38.3625 -77.8636 217° Southwest 367 422 18,500 1,860 Climbing Washington Center
07:27PM 38.2817 -77.9406 217° Southwest 375 432 20,300 1,800 Climbing Washington Center
07:28PM 38.2008 -78.0200 218° Southwest 375 432 22,200 1,860 Climbing Washington Center
07:29PM 38.1158 -78.0989 216° Southwest 375 432 24,000 1,800 Climbing Washington Center
07:30PM 38.0308 -78.1778 216° Southwest 375 432 25,800 1,680 Climbing Washington Center
07:31PM 37.9497 -78.2567 217° Southwest 375 432 27,400 1,440 Climbing Washington Center
07:32PM 37.8667 -78.3328 216° Southwest 385 443 28,800 1,380 Climbing Washington Center
07:33PM 37.7772 -78.4161 216° Southwest 398 458 30,300 1,380 Climbing Washington Center
07:34PM 37.6811 -78.5019 215° Southwest 409 471 31,700 1,440 Climbing Washington Center
07:35PM 37.5853 -78.5897 216° Southwest 421 484 33,200 1,620 Climbing Washington Center
07:36PM 37.4761 -78.6928 217° Southwest 441 507 35,000 1,620 Climbing Washington Center
07:37PM 37.3758 -78.7828 216° Southwest 446 513 36,500 1,380 Climbing Washington Center
07:38PM 37.2731 -78.8753 216° Southwest 451 519 37,900 1,380 Climbing Washington Center
07:39PM 37.1703 -78.9697 216° Southwest 451 519 39,400 1,020 Climbing Washington Center
07:40PM 37.0675 -79.0617 216° Southwest 456 525 40,000 300 Climbing Washington Center
07:41PM 36.9711 -79.1483 216° Southwest 473 544 40,000  Level Washington Center
07:42PM 36.8617 -79.2497 217° Southwest 487 560 40,000  Level Washington Center
07:45PM 36.5769 -79.4994 215° Southwest 487 560 40,000  Level Atlanta Center
07:46PM 36.4639 -79.6011 216° Southwest 492 566 40,000  Level Atlanta Center
07:47PM 36.3569 -79.6975 216° Southwest 497 572 40,000  Level Atlanta Center
07:48PM 36.2558 -79.7878 216° Southwest 502 578 40,000  Level Atlanta Center
07:49PM 36.1422 -79.8839 214° Southwest 502 578 40,000  Level Atlanta Center
07:50PM 36.0353 -79.9919 219° Southwest 502 578 40,000  Level Atlanta Center
07:51PM 35.9564 -80.1267 234° Southwest 491 565 40,000  Level Atlanta Center
07:52PM 35.8717 -80.2872 237° Southwest 503 579 40,000  Level Atlanta Center
07:53PM 35.7922 -80.4264 235° Southwest 508 585 40,000  Level Atlanta Center
07:54PM 35.7150 -80.5681 236° Southwest 508 585 40,000  Level Atlanta Center
07:55PM 35.6356 -80.7094 235° Southwest 508 585 40,000  Level Atlanta Center
07:56PM 35.5558 -80.8506 235° Southwest 503 579 40,000  Level Atlanta Center
07:57PM 35.4839 -80.9756 235° Southwest 503 579 40,000  Level Atlanta Center
07:58PM 35.4039 -81.1161 235° Southwest 503 579 40,000  Level Atlanta Center
07:59PM 35.3258 -81.2564 236° Southwest 503 579 40,000  Level Atlanta Center
08:00PM 35.2417 -81.4092 236° Southwest 497 572 40,000  Level Atlanta Center
08:01PM 35.1650 -81.5439 235° Southwest 491 565 40,000 420 Level Atlanta Center
08:02PM 35.0883 -81.6731 234° Southwest 491 565 40,900 900 Climbing Atlanta Center
08:03PM 35.0136 -81.8044 235° Southwest 484 557 41,900 960 Climbing Atlanta Center
08:04PM 34.9408 -81.9358 236° Southwest 478 550 42,900 540 Climbing Atlanta Center
08:05PM 34.8736 -82.0436 233° Southwest 466 536 43,000  Climbing Atlanta Center
08:06PM 34.8006 -82.1694 235° Southwest 461 531 43,000  Level Atlanta Center
08:07PM 34.7253 -82.3000 235° Southwest 461 531 43,000  Level Atlanta Center
08:08PM 34.6497 -82.4303 235° Southwest 466 536 43,000  Level Atlanta Center
08:09PM 34.5700 -82.5606 233° Southwest 472 543 43,000  Level Atlanta Center
08:10PM 34.4819 -82.7058 234° Southwest 484 557 43,000  Level Atlanta Center
08:11PM 34.4042 -82.8353 234° Southwest 484 557 43,000  Level Atlanta Center
08:12PM 34.3281 -82.9672 235° Southwest 484 557 43,000  Level Atlanta Center
08:13PM 34.2478 -83.0989 234° Southwest 484 557 43,000  Level Atlanta Center
08:14PM 34.1672 -83.2303 233° Southwest 484 557 43,000  Level Atlanta Center
08:15PM 34.0908 -83.3617 235° Southwest 484 557 43,000  Level Atlanta Center
08:16PM 34.0206 -83.4747 233° Southwest 484 557 43,000  Level Atlanta Center
08:17PM 33.9397 -83.6081 234° Southwest 484 557 43,000  Level Atlanta Center
08:18PM 33.8586 -83.7386 233° Southwest 484 557 43,000  Level Atlanta Center
08:19PM 33.7817 -83.8664 234° Southwest 484 557 43,000  Level Atlanta Center
08:20PM 33.7003 -83.9964 233° Southwest 484 557 43,000  Level Atlanta Center
08:21PM 33.6106 -84.1411 233° Southwest 484 557 43,000  Level Atlanta Center
08:22PM 33.5269 -84.2706 232° Southwest 489 563 43,000  Level Atlanta Center
08:23PM 33.4472 -84.4022 234° Southwest 495 570 43,000  Level Atlanta Center
08:24PM 33.3675 -84.5339 234° Southwest 500 575 43,000  Level Atlanta Center
08:25PM 33.2856 -84.6625 233° Southwest 500 575 43,000  Level Atlanta Center
08:26PM 33.2033 -84.7936 233° Southwest 495 570 43,000  Level Atlanta Center
08:27PM 33.1294 -84.9094 233° Southwest 495 570 43,000  Level Atlanta Center
08:28PM 33.0594 -85.0475 239° Southwest 495 570 43,000  Level Atlanta Center
08:29PM 33.0250 -85.1958 255° West 477 549 43,000  Level Atlanta Center
08:30PM 32.9919 -85.3489 256° West 472 543 43,000  Level Atlanta Center
08:31PM 32.9611 -85.4994 256° West 478 550 43,000  Level Atlanta Center
08:32PM 32.9300 -85.6575 257° West 478 550 43,000  Level Atlanta Center
08:33PM 32.8986 -85.8103 256° West 478 550 43,000  Level Atlanta Center
08:34PM 32.8650 -85.9603 255° West 478 550 43,000  Level Atlanta Center
08:35PM 32.8311 -86.1153 255° West 478 550 43,000  Level Atlanta Center
08:36PM 32.7972 -86.2753 256° West 472 543 43,000  Level Atlanta Center
08:37PM 32.7653 -86.4225 256° West 465 535 43,000  Level Atlanta Center
08:38PM 32.7353 -86.5600 255° West 448 516 43,000  Level Atlanta Center
08:39PM 32.7031 -86.6975 254° West 443 510 43,000  Level Atlanta Center
08:40PM 32.6728 -86.8394 256° West 443 510 43,000  Level Atlanta Center
08:42PM 32.6122 -87.1114 255° West 437 503 43,000  Level Atlanta Center
08:43PM 32.5772 -87.2556 254° West 432 497 43,000  Level Atlanta Center
08:44PM 32.5464 -87.3950 255° West 437 503 43,000  Level Atlanta Center
08:45PM 32.4994 -87.6083 255° West 453 521 43,000  Level Memphis Center
08:46PM 32.4611 -87.7672 254° West 453 521 43,000  Level Memphis Center
08:47PM 32.4286 -87.9083 255° West 453 521 43,000  Level Memphis Center
08:48PM 32.3978 -88.0469 255° West 453 521 43,000  Level Memphis Center
08:49PM 32.3650 -88.1881 255° West 453 521 43,000  Level Memphis Center
08:50PM 32.3297 -88.3292 254° West 448 516 43,000  Level Memphis Center
08:51PM 32.3089 -88.4719 260° West 448 516 43,000  Level Memphis Center
08:52PM 32.3111 -88.6147 271° West 442 509 43,000  Level Memphis Center
08:53PM 32.3172 -88.7594 273° West 442 509 43,000  Level Memphis Center
08:54PM 32.3231 -88.9044 273° West 442 509 43,000  Level Memphis Center
08:55PM 32.3289 -89.0519 273° West 442 509 43,000  Level Memphis Center
08:56PM 32.3325 -89.1994 272° West 442 509 43,000  Level Memphis Center
08:57PM 32.3358 -89.3444 272° West 442 509 43,000  Level Memphis Center
08:58PM 32.3411 -89.4919 272° West 442 509 43,000  Level Memphis Center
08:59PM 32.3442 -89.6344 271° West 442 509 43,000  Level Memphis Center
09:00PM 32.3492 -89.7794 272° West 442 509 43,000  Level Memphis Center
09:01PM 32.3517 -89.9244 271° West 442 509 43,000  Level Memphis Center
09:02PM 32.3564 -90.0697 272° West 442 509 43,000  Level Memphis Center
09:03PM 32.3586 -90.2147 271° West 442 509 43,000  Level Memphis Center
09:04PM 32.3631 -90.3597 272° West 442 509 43,000  Level Memphis Center
09:07PM 32.3736 -90.7019 272° West 445 512 43,000  Level Houston Center
09:08PM 32.3764 -90.8678 271° West 448 516 43,000  Level Houston Center
09:09PM 32.3797 -91.0142 272° West 449 517 43,000  Level Houston Center
09:10PM 32.3828 -91.1606 271° West 448 516 43,000  Level Houston Center
09:10PM 32.3842 -91.2564 271° West 458 527 43,000  Level Fort Worth Center
09:11PM 32.3853 -91.4064 271° West 458 527 43,000  Level Fort Worth Center
09:12PM 32.3878 -91.5514 271° West 458 527 43,000  Level Fort Worth Center
09:13PM 32.3903 -91.6964 271° West 458 527 43,000  Level Fort Worth Center
09:14PM 32.3928 -91.8439 271° West 453 521 43,000  Level Fort Worth Center
09:15PM 32.3950 -91.9911 271° West 453 521 43,000  Level Fort Worth Center
09:16PM 32.3958 -92.1533 270° West 459 528 43,000  Level Fort Worth Center
09:17PM 32.3978 -92.3033 271° West 459 528 43,000  Level Fort Worth Center
09:18PM 32.3975 -92.4511 270° West 459 528 43,000  Level Fort Worth Center
09:19PM 32.3964 -92.5078 269° West 450 518 43,000  Level Houston Center
09:20PM 32.3964 -92.6553 270° West 451 519 43,000  Level Houston Center
09:20PM 32.4006 -92.7486 273° West 462 532 43,000  Level Fort Worth Center
09:21PM 32.3994 -92.8961 270° West 457 526 43,000  Level Fort Worth Center
09:22PM 32.4025 -93.0411 271° West 457 526 43,000  Level Fort Worth Center
09:23PM 32.4028 -93.1692 270° West 452 520 43,000  Level Fort Worth Center
09:24PM 32.3992 -93.3144 268° West 446 513 43,000  Level Fort Worth Center
09:25PM 32.4000 -93.4669 270° West 451 519 43,000  Level Fort Worth Center
09:26PM 32.4006 -93.6242 270° West 451 519 43,000  Level Fort Worth Center
09:27PM 32.4008 -93.7744 270° West 451 519 43,000  Level Fort Worth Center
09:28PM 32.4050 -93.9242 272° West 456 525 43,000  Level Fort Worth Center
09:29PM 32.4050 -94.0744 270° West 462 532 43,000  Level Fort Worth Center
09:30PM 32.4067 -94.2144 271° West 452 520 43,000  Level Fort Worth Center
09:31PM 32.4103 -94.3644 272° West 447 514 43,000  Level Fort Worth Center
09:32PM 32.4117 -94.5122 271° West 447 514 43,000  Level Fort Worth Center
09:33PM 32.4128 -94.6522 271° West 447 514 43,000 -960 Level Fort Worth Center
09:34PM 32.4056 -94.8003 267° West 447 514 41,100 -2,520 Descending Fort Worth Center
09:35PM 32.3856 -94.9458 261° West 447 514 38,000 -2,940 Descending Fort Worth Center
09:36PM 32.3672 -95.0792 261° West 452 520 35,300 -2,880 Descending Fort Worth Center
09:37PM 32.3467 -95.2247 261° West 452 520 32,300 -3,000 Descending Fort Worth Center
09:38PM 32.3597 -95.3744 276° West 452 520 29,300 -3,060 Descending Fort Worth Center
09:39PM 32.3933 -95.5189 285° West 452 520 26,200 -3,300 Descending Fort Worth Center
09:40PM 32.4203 -95.6536 283° West 441 507 22,700 -3,300 Descending Fort Worth Center
09:41PM 32.4492 -95.7886 284° West 435 501 19,600 -3,120 Descending Fort Worth Center
09:42PM 32.4758 -95.9161 284° West 414 476 16,500 -3,000 Descending Fort Worth Center
09:43PM 32.5044 -96.0536 284° West 400 460 13,600 -2,400 Descending Fort Worth Center
09:44PM 32.5264 -96.1519 285° West 366 421 11,800 -1,740 Descending Fort Worth Center
09:45PM 32.5483 -96.2600 284° West 322 371 10,200 -1,440 Descending Fort Worth Center
09:46PM 32.5678 -96.3386 286° West 283 326 9,000 -1,080 Descending Fort Worth Center
09:47PM 32.6122 -96.4194 303° West 270 311 8,100 -1,020 Descending Fort Worth Center
09:48PM 32.6547 -96.4906 305° West 276 318 7,000 -600 Descending Fort Worth Center
09:49PM 32.7136 -96.5617 315° West 281 323 6,900 -960 Descending Fort Worth Center
09:50PM 32.7725 -96.6103 325° Northwest 286 329 5,100 -1,320 Descending Fort Worth Center
09:52PM 32.8500 -96.6833 322° Northwest 286 329 4,200 -540 Descending Dallas / Fort Worth TRACON
09:53PM 32.9167 -96.7333 328° Northwest 288 331 4,000 -600 Descending Dallas / Fort Worth TRACON
09:54PM 32.9500 -96.8167 296° West 259 298 3,000 -840 Descending Dallas / Fort Worth TRACON
09:55PM 32.9500 -96.8833 270° West 222 255 2,400 -720 Descending Dallas / Fort Worth TRACON
09:56PM 32.9167 -96.9167 220° Southwest 144 166 1,600 -660 Descending Dallas / Fort Worth TRACON
09:56PM 32.9000 -96.9000 140° Southeast 117 135 1,200 -420 Descending Dallas / Fort Worth TRACON
09:58PM 32.8667 -96.8667 140° Southeast 115 132 800 -420 Descending Dallas / Fort Worth TRACON
10:00PM 32.8471 -96.8518 173° South  Level Estimated